Shamrock Station, Pennsylvania
Current Conditions -  °F | °C
As of 1:15 PM on Saturday 22 Nov 2014 (Local Time) from KXLL Reporting Station
Clear Clear  
Wind Chill: 37°   Ceiling: Unl
Heat Index: 43°   Visibility: 10mi
Dew Point: 12°   Wind: 9mph
Humidity: 29%   Direction: 230°SW
Pressure: 30.33"   Gusts: NA
Location:  40.4939°N, 75.6842°W
Report Text: KXLL 221815Z AUTO 23008KT 10SM CLR 06/M11 A3033 RMK AO2
Loading
Personal Weather Stations






























Interactive Weather Map New forecast layout! Learn more

10-Day Weather Forecast

Advertisements
Track Severe Weather on mobile